Time;durP1;ratioP1;P1;durP2;ratioP2;P2;SDS_P1;SDS_P2;PMS_P1;PMS_P2;Temp;Humidity;BMP_temperature;BMP_pressure;BME280_temperature;BME280_humidity;BME280_pressure;Samples;Min_cycle;Max_cycle;Signal;HPM_P1;HPM_P2
2022/03/23 00:01:55;;;;;;;;;;;;;;;7.41;100.00;103001.97;5116003;28;19923;-80
2022/03/23 00:04:24;;;;;;;;;;;;;;;7.38;100.00;102993.88;5116176;28;19916;-78
2022/03/23 00:06:49;;;;;;;;;;;;;;;7.35;100.00;102993.59;5116438;28;19955;-78
2022/03/23 00:09:14;;;;;;;;;;;;;;;7.21;100.00;102989.84;5133066;28;20382;-78
2022/03/23 00:11:40;;;;;;;;;;;;;;;7.19;100.00;102994.94;5134952;28;19911;-79
2022/03/23 00:14:06;;;;;;;;;;;;;;;7.13;100.00;102997.03;5116023;28;19916;-78
2022/03/23 00:16:34;;;;;;;;;;;;;;;7.03;100.00;102996.13;5116019;28;19989;-78
2022/03/23 00:18:59;;;;;;;;;;;;;;;6.95;100.00;102992.88;5116384;28;19938;-79
2022/03/23 00:21:25;;;;;;;;;;;;;;;6.96;100.00;102992.06;5116303;28;20363;-79
2022/03/23 00:23:51;;;;;;;;;;;;;;;6.94;100.00;102991.94;5115666;28;20318;-78
2022/03/23 00:26:16;;;;;;;;;;;;;;;6.98;100.00;102987.91;5114017;28;19916;-79
2022/03/23 00:28:41;;;;;;;;;;;;;;;6.95;100.00;102987.63;5116240;28;19915;-79
2022/03/23 00:31:09;;;;;;;;;;;;;;;6.86;100.00;102986.84;5115825;28;20574;-79
2022/03/23 00:33:37;;;;;;;;;;;;;;;6.75;100.00;102989.44;5115934;28;19921;-79
2022/03/23 00:36:02;;;;;;;;;;;;;;;6.67;100.00;102987.88;5133962;28;19919;-79
2022/03/23 00:38:27;;;;;;;;;;;;;;;6.74;100.00;102986.69;5115954;28;19919;-77
2022/03/23 00:40:53;;;;;;;;;;;;;;;6.78;100.00;102991.44;5115810;28;20283;-77
2022/03/23 00:43:18;;;;;;;;;;;;;;;6.78;100.00;102987.09;5133839;28;19915;-78
2022/03/23 00:45:44;;;;;;;;;;;;;;;6.65;100.00;102989.47;5115202;28;20014;-78
2022/03/23 00:48:10;;;;;;;;;;;;;;;6.73;100.00;102991.03;5115490;28;20363;-78
2022/03/23 00:50:35;;;;;;;;;;;;;;;6.67;100.00;102987.88;5134288;28;19920;-78
2022/03/23 00:53:02;;;;;;;;;;;;;;;6.72;100.00;102991.81;5114740;28;20308;-78
2022/03/23 00:55:27;;;;;;;;;;;;;;;6.69;100.00;102993.25;5116137;28;20037;-77
2022/03/23 00:57:53;;;;;;;;;;;;;;;6.58;100.00;102995.84;5134044;28;20000;-78
2022/03/23 01:00:20;;;;;;;;;;;;;;;6.56;100.00;102996.53;5116583;27;20377;-78
2022/03/23 01:02:46;;;;;;;;;;;;;;;6.46;100.00;102993.09;5119611;27;19919;-78
2022/03/23 01:05:16;;;;;;;;;;;;;;;6.42;100.00;102991.00;5119392;27;19942;-77
2022/03/23 01:07:42;;;;;;;;;;;;;;;6.41;100.00;102991.78;5137630;27;19919;-78
2022/03/23 01:10:11;;;;;;;;;;;;;;;6.42;100.00;102993.63;5137430;27;20545;-78
2022/03/23 01:12:36;;;;;;;;;;;;;;;6.42;100.00;102997.94;5119656;27;20010;-78
2022/03/23 01:15:03;;;;;;;;;;;;;;;6.44;100.00;102997.28;5119088;27;19955;-78
2022/03/23 01:17:29;;;;;;;;;;;;;;;6.40;100.00;102994.25;5119397;27;19948;-77
2022/03/23 01:19:54;;;;;;;;;;;;;;;6.38;100.00;103004.59;5118717;27;20005;-77
2022/03/23 01:22:19;;;;;;;;;;;;;;;6.32;100.00;102985.72;5118745;27;19998;-77
2022/03/23 01:24:45;;;;;;;;;;;;;;;6.23;100.00;102995.38;5137010;27;20409;-77
2022/03/23 01:27:10;;;;;;;;;;;;;;;6.22;100.00;102991.88;5116589;27;19975;-79
2022/03/23 01:29:35;;;;;;;;;;;;;;;6.18;100.00;102986.22;5117759;27;20393;-79
2022/03/23 01:32:01;;;;;;;;;;;;;;;6.13;100.00;102993.69;5137361;27;19919;-78
2022/03/23 01:34:28;;;;;;;;;;;;;;;6.14;100.00;102989.34;5118989;27;19925;-79
2022/03/23 01:36:53;;;;;;;;;;;;;;;6.18;100.00;102994.06;5119106;27;19917;-79
2022/03/23 01:39:19;;;;;;;;;;;;;;;6.10;100.00;102985.56;5137340;27;19916;-79
2022/03/23 01:41:44;;;;;;;;;;;;;;;6.14;100.00;102992.91;5101957;27;19923;-79
2022/03/23 01:44:24;;;;;;;;;;;;;;;6.09;100.00;102994.16;5118592;27;19945;-78
2022/03/23 01:47:02;;;;;;;;;;;;;;;5.99;100.00;102992.44;5116590;27;19928;-79
2022/03/23 01:49:27;;;;;;;;;;;;;;;5.95;100.00;102992.94;5118636;27;19927;-79
2022/03/23 01:51:52;;;;;;;;;;;;;;;6.00;100.00;102989.06;5119199;27;19919;-78
2022/03/23 01:54:24;;;;;;;;;;;;;;;5.96;100.00;102988.63;5118808;27;19919;-78
2022/03/23 01:56:49;;;;;;;;;;;;;;;5.95;100.00;102990.34;5098723;28;19958;-77
2022/03/23 01:59:16;;;;;;;;;;;;;;;5.94;100.00;102993.72;5115857;28;19916;-78
2022/03/23 02:01:41;;;;;;;;;;;;;;;5.86;100.00;102993.03;5132245;27;19962;-78
2022/03/23 02:04:09;;;;;;;;;;;;;;;5.83;100.00;102990.13;5117082;27;19955;-77
2022/03/23 02:06:35;;;;;;;;;;;;;;;5.75;100.00;103001.63;5118369;27;19916;-78
2022/03/23 02:09:00;;;;;;;;;;;;;;;5.81;100.00;102998.63;5118307;27;19959;-76
2022/03/23 02:11:25;;;;;;;;;;;;;;;5.72;100.00;102997.03;5117486;27;20006;-76
2022/03/23 02:13:53;;;;;;;;;;;;;;;5.72;100.00;102993.50;5135939;27;19912;-77
2022/03/23 02:16:19;;;;;;;;;;;;;;;5.66;100.00;102991.25;5135957;27;19930;-77
2022/03/23 02:18:44;;;;;;;;;;;;;;;5.70;100.00;102987.19;5136620;27;19911;-78
2022/03/23 02:21:13;;;;;;;;;;;;;;;5.70;100.00;102995.97;5117934;27;19922;-79
2022/03/23 02:23:45;;;;;;;;;;;;;;;5.69;100.00;102990.59;5117999;27;20031;-78
2022/03/23 02:26:11;;;;;;;;;;;;;;;5.68;100.00;102992.28;5117403;27;19922;-78
2022/03/23 02:28:36;;;;;;;;;;;;;;;5.63;100.00;102988.34;5117588;27;20002;-78
2022/03/23 02:31:02;;;;;;;;;;;;;;;5.60;100.00;102995.00;5117973;27;20355;-79
2022/03/23 02:33:28;;;;;;;;;;;;;;;5.56;100.00;102991.19;5136298;27;19922;-78
2022/03/23 02:35:53;;;;;;;;;;;;;;;5.54;100.00;102992.75;5117599;27;19962;-77
2022/03/23 02:38:18;;;;;;;;;;;;;;;5.52;100.00;102995.22;5117790;27;19951;-78
2022/03/23 02:40:44;;;;;;;;;;;;;;;5.49;100.00;102983.56;5116596;27;19959;-79
2022/03/23 02:43:09;;;;;;;;;;;;;;;5.42;100.00;102986.41;5115998;27;19916;-78
2022/03/23 02:45:35;;;;;;;;;;;;;;;5.40;100.00;102989.78;5115042;27;19919;-78
2022/03/23 02:48:00;;;;;;;;;;;;;;;5.41;100.00;102990.72;5115140;27;19943;-78
2022/03/23 02:50:26;;;;;;;;;;;;;;;5.38;100.00;102991.34;5117048;27;19964;-78
2022/03/23 03:04:10;;;;;;;;;;;;;;;5.24;100.00;102994.41;5135327;27;19922;-78
2022/03/23 03:06:35;;;;;;;;;;;;;;;5.23;100.00;102995.16;5115663;27;19922;-79
2022/03/23 03:09:01;;;;;;;;;;;;;;;5.20;100.00;103000.09;5116981;27;19920;-79
2022/03/23 03:11:27;;;;;;;;;;;;;;;5.18;100.00;103004.28;5134896;27;19919;-79
2022/03/23 03:13:52;;;;;;;;;;;;;;;5.16;100.00;103004.13;5118010;27;19919;-78
2022/03/23 03:16:20;;;;;;;;;;;;;;;5.13;100.00;103005.56;5133866;27;19958;-79
2022/03/23 03:18:49;;;;;;;;;;;;;;;5.12;100.00;103006.31;5135192;27;19915;-77
2022/03/23 03:21:14;;;;;;;;;;;;;;;5.04;100.00;103008.22;5099927;27;19931;-78
2022/03/23 03:23:42;;;;;;;;;;;;;;;5.09;100.00;103008.66;5116001;28;19923;-78
2022/03/23 03:26:10;;;;;;;;;;;;;;;5.03;100.00;103001.16;5134694;27;20015;-78
2022/03/23 03:28:36;;;;;;;;;;;;;;;4.92;100.00;103008.00;5081940;28;19924;-78
2022/03/23 03:31:03;;;;;;;;;;;;;;;4.85;100.00;103006.50;5096022;28;19927;-78
2022/03/23 03:33:35;;;;;;;;;;;;;;;4.89;100.00;103012.94;5113824;28;19919;-77
2022/03/23 03:36:00;;;;;;;;;;;;;;;4.86;100.00;103007.41;5116537;27;19926;-78
2022/03/23 03:38:28;;;;;;;;;;;;;;;4.80;100.00;103014.66;5116231;27;19916;-79
2022/03/23 03:40:54;;;;;;;;;;;;;;;4.78;100.00;103016.22;5109069;27;19920;-78
2022/03/23 03:43:20;;;;;;;;;;;;;;;4.76;100.00;103010.88;5116642;27;20040;-79
2022/03/23 03:45:46;;;;;;;;;;;;;;;4.73;100.00;103009.66;5116487;28;20375;-79
2022/03/23 03:48:12;;;;;;;;;;;;;;;4.73;100.00;103012.28;5116067;28;19926;-79
2022/03/23 03:50:39;;;;;;;;;;;;;;;4.66;100.00;103019.53;5135003;27;20496;-79
2022/03/23 03:53:05;;;;;;;;;;;;;;;4.65;100.00;103016.78;5115321;28;20014;-78
2022/03/23 03:55:30;;;;;;;;;;;;;;;4.59;100.00;103021.41;5113981;27;19925;-78
2022/03/23 03:57:56;;;;;;;;;;;;;;;4.60;100.00;103020.63;5116561;28;20006;-78
2022/03/23 04:00:21;;;;;;;;;;;;;;;4.57;100.00;103025.53;5116293;27;20406;-79
2022/03/23 04:02:48;;;;;;;;;;;;;;;4.55;100.00;103025.41;5099221;28;19919;-78
2022/03/23 04:05:13;;;;;;;;;;;;;;;4.46;100.00;103022.84;5115627;28;19922;-78
2022/03/23 04:07:38;;;;;;;;;;;;;;;4.44;100.00;103023.47;5116182;28;19924;-80
2022/03/23 04:10:04;;;;;;;;;;;;;;;4.39;100.00;103033.47;5134542;28;19915;-79
2022/03/23 04:12:30;;;;;;;;;;;;;;;4.36;100.00;103035.78;5134270;28;19920;-80
2022/03/23 04:14:55;;;;;;;;;;;;;;;4.35;100.00;103038.22;5116007;28;20295;-79
2022/03/23 04:17:20;;;;;;;;;;;;;;;4.29;100.00;103044.72;5116011;28;19919;-79
2022/03/23 04:19:46;;;;;;;;;;;;;;;4.28;100.00;103034.13;5116110;28;19916;-79
2022/03/23 04:22:12;;;;;;;;;;;;;;;4.25;100.00;103039.03;5116077;28;19922;-78
2022/03/23 04:24:42;;;;;;;;;;;;;;;4.21;100.00;103036.91;5099482;28;19930;-79
2022/03/23 04:27:08;;;;;;;;;;;;;;;4.20;100.00;103036.00;5116102;28;19952;-78
2022/03/23 04:29:33;;;;;;;;;;;;;;;4.18;100.00;103041.81;5116164;28;19966;-78
2022/03/23 04:31:58;;;;;;;;;;;;;;;4.09;100.00;103042.78;5115701;28;19924;-79
2022/03/23 04:34:25;;;;;;;;;;;;;;;4.06;100.00;103047.69;5116124;27;19920;-79
2022/03/23 04:36:51;;;;;;;;;;;;;;;4.05;100.00;103056.28;5138109;27;19915;-77
2022/03/23 04:39:16;;;;;;;;;;;;;;;4.08;100.00;103053.06;5102498;27;20022;-77
2022/03/23 04:41:42;;;;;;;;;;;;;;;4.02;100.00;103057.66;5119866;27;19919;-77
2022/03/23 04:44:07;;;;;;;;;;;;;;;4.07;100.00;103059.97;5119425;27;19968;-77
2022/03/23 04:46:32;;;;;;;;;;;;;;;4.07;100.00;103061.63;5102717;27;20316;-77
2022/03/23 04:48:57;;;;;;;;;;;;;;;3.99;100.00;103062.59;5137868;27;19926;-77
2022/03/23 04:51:23;;;;;;;;;;;;;;;3.91;100.00;103060.13;5119895;27;19930;-77
2022/03/23 04:53:51;;;;;;;;;;;;;;;3.94;100.00;103063.03;5119571;27;19919;-76
2022/03/23 04:56:16;;;;;;;;;;;;;;;3.86;100.00;103069.19;5119044;27;19920;-77
2022/03/23 04:58:42;;;;;;;;;;;;;;;3.89;100.00;103073.81;5102628;27;19931;-79
2022/03/23 05:01:08;;;;;;;;;;;;;;;3.88;100.00;103071.94;5102351;27;20294;-78
2022/03/23 05:03:34;;;;;;;;;;;;;;;3.83;100.00;103068.91;5119465;27;19964;-78
2022/03/23 05:06:00;;;;;;;;;;;;;;;3.83;100.00;103074.09;5118980;27;19919;-78
2022/03/23 05:08:25;;;;;;;;;;;;;;;3.88;100.00;103075.47;5132064;27;19915;-78
2022/03/23 05:10:51;;;;;;;;;;;;;;;3.89;100.00;103076.41;5099397;28;19977;-78
2022/03/23 05:13:18;;;;;;;;;;;;;;;3.90;100.00;103076.56;5098604;28;19920;-78
2022/03/23 05:15:43;;;;;;;;;;;;;;;3.91;100.00;103083.59;5103655;27;19916;-78
2022/03/23 05:18:08;;;;;;;;;;;;;;;3.83;100.00;103083.63;5119326;27;19920;-78
2022/03/23 05:20:34;;;;;;;;;;;;;;;3.73;100.00;103084.41;5118802;27;19926;-78
2022/03/23 05:23:02;;;;;;;;;;;;;;;3.75;100.00;103085.47;5118617;27;19975;-78
2022/03/23 05:25:27;;;;;;;;;;;;;;;3.69;100.00;103084.84;5118907;27;20378;-79
2022/03/23 05:27:52;;;;;;;;;;;;;;;3.63;100.00;103084.25;5119491;27;19930;-80
2022/03/23 05:30:18;;;;;;;;;;;;;;;3.63;100.00;103081.63;5118789;27;19950;-80
2022/03/23 05:32:44;;;;;;;;;;;;;;;3.64;100.00;103087.00;5119636;27;20396;-79
2022/03/23 05:35:14;;;;;;;;;;;;;;;3.65;100.00;103082.69;5118686;27;19911;-80
2022/03/23 05:37:39;;;;;;;;;;;;;;;3.66;100.00;103085.47;5119074;27;19920;-81
2022/03/23 05:40:05;;;;;;;;;;;;;;;3.66;100.00;103087.16;5137187;27;19933;-81
2022/03/23 05:42:30;;;;;;;;;;;;;;;3.64;100.00;103087.00;5136987;27;20393;-80
2022/03/23 05:45:03;;;;;;;;;;;;;;;3.69;100.00;103084.84;5118631;27;19923;-79
2022/03/23 05:47:28;;;;;;;;;;;;;;;3.65;100.00;103085.31;5135814;27;19944;-79
2022/03/23 05:49:53;;;;;;;;;;;;;;;3.63;100.00;103073.81;5137276;27;19978;-79
2022/03/23 05:52:19;;;;;;;;;;;;;;;3.69;100.00;103075.34;5116867;27;19939;-80
2022/03/23 05:54:44;;;;;;;;;;;;;;;3.79;100.00;103077.16;5116239;27;19920;-80
2022/03/23 05:57:09;;;;;;;;;;;;;;;3.87;100.00;103075.31;5118686;27;19923;-80
2022/03/23 05:59:34;;;;;;;;;;;;;;;3.92;100.00;103076.72;5118549;27;19915;-80
2022/03/23 06:02:00;;;;;;;;;;;;;;;4.04;100.00;103079.59;5136241;27;19969;-80
2022/03/23 06:04:46;;;;;;;;;;;;;;;4.14;100.00;103082.34;5118962;27;20356;-80
2022/03/23 06:07:11;;;;;;;;;;;;;;;4.52;100.00;103077.28;5118553;27;19927;-79
2022/03/23 06:09:36;;;;;;;;;;;;;;;4.75;100.00;103079.50;5136207;27;20339;-80
2022/03/23 06:12:04;;;;;;;;;;;;;;;4.89;100.00;103083.41;5118111;27;19926;-80
2022/03/23 06:14:42;;;;;;;;;;;;;;;5.21;100.00;103083.84;5118020;27;19960;-80
2022/03/23 06:17:07;;;;;;;;;;;;;;;5.42;100.00;103083.06;5117676;27;19927;-80
2022/03/23 06:19:33;;;;;;;;;;;;;;;5.31;100.00;103088.22;5118423;27;20370;-80
2022/03/23 06:21:58;;;;;;;;;;;;;;;5.07;100.00;103091.16;5117164;27;20024;-80
2022/03/23 06:24:23;;;;;;;;;;;;;;;5.11;100.00;103090.66;5117911;27;20294;-80
2022/03/23 06:26:48;;;;;;;;;;;;;;;5.09;100.00;103094.84;5117350;27;19919;-80
2022/03/23 06:29:14;;;;;;;;;;;;;;;5.79;100.00;103096.94;5121005;27;19971;-82
2022/03/23 06:31:39;;;;;;;;;;;;;;;6.64;100.00;103087.13;5117866;27;19915;-81
2022/03/23 06:34:07;;;;;;;;;;;;;;;7.56;100.00;103094.09;5117590;27;19911;-81
2022/03/23 06:36:32;;;;;;;;;;;;;;;8.42;100.00;103101.16;5115943;27;20025;-81
2022/03/23 06:38:57;;;;;;;;;;;;;;;8.91;100.00;103112.06;5116993;27;20349;-82
2022/03/23 06:41:22;;;;;;;;;;;;;;;9.30;100.00;103105.47;5117646;27;19915;-81
2022/03/23 06:43:59;;;;;;;;;;;;;;;9.89;100.00;103117.78;5117271;27;20256;-82
2022/03/23 06:46:24;;;;;;;;;;;;;;;9.85;100.00;103121.91;5117517;27;20382;-81
2022/03/23 06:48:49;;;;;;;;;;;;;;;9.93;100.00;103100.50;5117758;27;19919;-81
2022/03/23 06:51:15;;;;;;;;;;;;;;;10.58;100.00;103075.50;5116848;27;19934;-81
2022/03/23 06:53:51;;;;;;;;;;;;;;;10.69;100.00;103056.88;5117020;27;19915;-80
2022/03/23 06:56:17;;;;;;;;;;;;;;;10.40;100.00;103056.63;5117297;27;19961;-81
2022/03/23 06:58:42;;;;;;;;;;;;;;;10.74;100.00;103048.50;5116812;27;19912;-82
2022/03/23 07:01:07;;;;;;;;;;;;;;;10.60;100.00;103042.25;5116801;27;20366;-81
2022/03/23 07:03:33;;;;;;;;;;;;;;;10.36;100.00;103053.66;5135518;27;19955;-82
2022/03/23 07:05:59;;;;;;;;;;;;;;;10.13;100.00;103049.31;5116784;27;19927;-81
2022/03/23 07:11:08;;;;;;;;;;;;;;;9.55;100.00;103056.47;5130003;27;19926;-81
2022/03/23 07:13:35;;;;;;;;;;;;;;;9.55;100.00;103051.19;5120602;27;19920;-81
2022/03/23 07:16:00;;;;;;;;;;;;;;;9.56;100.00;103053.94;5134889;27;19915;-80
2022/03/23 07:18:27;;;;;;;;;;;;;;;9.69;100.00;103056.72;5113196;27;20031;-80
2022/03/23 07:20:52;;;;;;;;;;;;;;;9.19;100.00;103055.50;5131956;27;19923;-80
2022/03/23 07:23:19;;;;;;;;;;;;;;;9.11;100.00;103054.91;5115439;27;20283;-81
2022/03/23 07:25:44;;;;;;;;;;;;;;;9.15;100.00;103055.25;5116342;27;19923;-81
2022/03/23 07:28:09;;;;;;;;;;;;;;;9.50;100.00;103056.13;5116321;27;19911;-80
2022/03/23 07:30:35;;;;;;;;;;;;;;;9.07;100.00;103053.72;5116655;27;20009;-81
2022/03/23 07:33:04;;;;;;;;;;;;;;;9.28;100.00;103059.75;5098212;28;20283;-82
2022/03/23 07:35:29;;;;;;;;;;;;;;;9.23;100.00;103065.44;5113825;28;19919;-82
2022/03/23 07:37:54;;;;;;;;;;;;;;;9.43;100.00;103067.91;5125833;27;19919;-81
2022/03/23 07:40:20;;;;;;;;;;;;;;;9.47;100.00;103071.66;5103562;28;19963;-81
2022/03/23 07:42:45;;;;;;;;;;;;;;;9.36;100.00;103065.59;5129529;27;19923;-80
2022/03/23 07:45:14;;;;;;;;;;;;;;;9.42;100.00;103067.78;5113665;27;19911;-81
2022/03/23 07:47:39;;;;;;;;;;;;;;;9.36;100.00;103068.22;5113236;28;20329;-81
2022/03/23 07:50:05;;;;;;;;;;;;;;;9.34;100.00;103069.81;5095673;28;19923;-80
2022/03/23 07:52:30;;;;;;;;;;;;;;;9.41;100.00;103071.19;5120133;27;19941;-80
2022/03/23 07:54:55;;;;;;;;;;;;;;;9.83;100.00;103070.88;5112587;28;20415;-81
2022/03/23 07:57:21;;;;;;;;;;;;;;;10.54;100.00;103070.78;5095315;28;19993;-81
2022/03/23 07:59:46;;;;;;;;;;;;;;;10.64;100.00;103072.34;5095118;28;19962;-81
2022/03/23 08:02:12;;;;;;;;;;;;;;;11.36;100.00;103083.47;5094947;28;19915;-80
2022/03/23 08:04:37;;;;;;;;;;;;;;;11.60;100.00;103086.88;5112957;28;20341;-79
2022/03/23 08:07:03;;;;;;;;;;;;;;;11.74;100.00;103093.09;5114424;28;20356;-80
2022/03/23 08:09:29;;;;;;;;;;;;;;;11.69;100.00;103090.13;5112386;28;19923;-79
2022/03/23 08:11:56;;;;;;;;;;;;;;;11.74;100.00;103087.81;5119518;27;20438;-79
2022/03/23 08:14:21;;;;;;;;;;;;;;;11.97;100.00;103092.00;5120383;27;19915;-78
2022/03/23 08:16:47;;;;;;;;;;;;;;;12.35;100.00;103083.94;5116374;28;19992;-79
2022/03/23 08:19:12;;;;;;;;;;;;;;;12.11;100.00;103092.91;5119077;27;19923;-79
2022/03/23 08:21:37;;;;;;;;;;;;;;;12.58;100.00;103095.06;5119762;27;19926;-79
2022/03/23 08:24:05;;;;;;;;;;;;;;;12.05;100.00;103087.22;5119979;27;19968;-79
2022/03/23 08:26:30;;;;;;;;;;;;;;;12.05;100.00;103090.78;5120257;27;19967;-80
2022/03/23 08:28:55;;;;;;;;;;;;;;;12.37;100.00;103086.69;5102202;27;19924;-80
2022/03/23 08:31:20;;;;;;;;;;;;;;;12.88;100.00;103089.88;5120083;27;19922;-80
2022/03/23 08:33:48;;;;;;;;;;;;;;;12.77;100.00;103081.28;5119954;27;19965;-80
2022/03/23 08:36:13;;;;;;;;;;;;;;;12.56;100.00;103087.03;5119397;27;19999;-79
2022/03/23 08:38:38;;;;;;;;;;;;;;;12.79;100.00;103084.94;5137734;27;19927;-79
2022/03/23 08:41:04;;;;;;;;;;;;;;;12.75;100.00;103082.91;5119755;27;19915;-80
2022/03/23 08:43:38;;;;;;;;;;;;;;;13.03;100.00;103087.28;5119772;27;19919;-80
2022/03/23 08:46:04;;;;;;;;;;;;;;;12.85;100.00;103089.66;5118975;27;19986;-79
2022/03/23 08:48:29;;;;;;;;;;;;;;;13.10;100.00;103082.44;5136488;27;20385;-80
2022/03/23 08:50:54;;;;;;;;;;;;;;;12.54;100.00;103078.09;5117834;27;20036;-79
2022/03/23 08:53:20;;;;;;;;;;;;;;;12.98;100.00;103084.34;5137811;27;19927;-80
2022/03/23 08:55:45;;;;;;;;;;;;;;;13.26;100.00;103076.34;5138333;27;19955;-79
2022/03/23 08:58:14;;;;;;;;;;;;;;;12.70;100.00;103079.06;5115456;27;19919;-79
2022/03/23 09:00:41;;;;;;;;;;;;;;;12.98;100.00;103083.44;5098671;28;19931;-79
2022/03/23 09:03:08;;;;;;;;;;;;;;;12.86;100.00;103084.47;5127309;27;19919;-79
2022/03/23 09:05:33;;;;;;;;;;;;;;;13.14;100.00;103082.63;5119570;27;19947;-78
2022/03/23 09:08:01;;;;;;;;;;;;;;;13.05;100.00;103080.34;5131642;27;20000;-80
2022/03/23 09:10:27;;;;;;;;;;;;;;;13.03;100.00;103087.28;5119539;27;20275;-80
2022/03/23 09:12:53;;;;;;;;;;;;;;;13.16;100.00;103087.22;5119339;27;19922;-79
2022/03/23 09:15:19;;;;;;;;;;;;;;;13.08;100.00;103089.41;5119007;27;20070;-79
2022/03/23 09:17:44;;;;;;;;;;;;;;;12.83;100.00;103089.56;5118796;27;19920;-79
2022/03/23 09:20:12;;;;;;;;;;;;;;;12.48;100.00;103092.66;5118498;27;20389;-79
2022/03/23 09:22:37;;;;;;;;;;;;;;;12.52;100.00;103090.31;5115379;27;20002;-79
2022/03/23 09:25:05;;;;;;;;;;;;;;;12.07;100.00;103098.81;5118932;27;19923;-79
2022/03/23 09:27:34;;;;;;;;;;;;;;;11.89;100.00;103093.19;5101420;27;20242;-79
2022/03/23 09:30:00;;;;;;;;;;;;;;;12.10;100.00;103093.72;5131758;27;20307;-79
2022/03/23 09:32:25;;;;;;;;;;;;;;;12.10;100.00;103086.69;5118418;27;19926;-79
2022/03/23 09:34:51;;;;;;;;;;;;;;;12.18;100.00;103090.78;5134372;27;19915;-78
2022/03/23 09:40:00;;;;;;;;;;;;;;;12.38;100.00;103091.13;5116232;28;19947;-79
2022/03/23 09:42:27;;;;;;;;;;;;;;;12.62;100.00;103090.91;5098260;28;19923;-79
2022/03/23 09:44:55;;;;;;;;;;;;;;;12.96;100.00;103092.97;5116396;28;19945;-79
2022/03/23 09:47:20;;;;;;;;;;;;;;;12.72;100.00;103088.00;5120626;27;19921;-79
2022/03/23 09:49:46;;;;;;;;;;;;;;;12.83;100.00;103099.25;5118834;27;19915;-77
2022/03/23 09:52:11;;;;;;;;;;;;;;;12.83;100.00;103101.91;5117697;27;19915;-77
2022/03/23 09:54:37;;;;;;;;;;;;;;;12.98;100.00;103096.66;5135697;27;19976;-77
2022/03/23 09:57:06;;;;;;;;;;;;;;;13.06;100.00;103098.94;5118126;27;19955;-76
2022/03/23 09:59:32;;;;;;;;;;;;;;;13.05;100.00;103104.13;5100945;27;19923;-76
2022/03/23 10:02:00;;;;;;;;;;;;;;;13.00;100.00;103100.31;5117468;27;19919;-77
2022/03/23 10:04:45;;;;;;;;;;;;;;;13.07;100.00;103098.13;5117677;27;20006;-77
2022/03/23 10:07:11;;;;;;;;;;;;;;;13.12;100.00;103098.41;5117844;27;19918;-77
2022/03/23 10:09:40;;;;;;;;;;;;;;;13.26;100.00;103094.88;5117906;27;19920;-76
2022/03/23 10:12:28;;;;;;;;;;;;;;;13.53;100.00;103100.06;5117483;27;19955;-78
2022/03/23 10:15:13;;;;;;;;;;;;;;;13.45;100.00;103106.59;5096678;28;20251;-77
2022/03/23 10:17:53;;;;;;;;;;;;;;;13.51;100.00;103099.03;5100441;27;19942;-77
2022/03/23 10:20:19;;;;;;;;;;;;;;;13.54;100.00;103104.50;5115087;27;19923;-77
2022/03/23 10:22:52;;;;;;;;;;;;;;;13.54;100.00;103099.22;5116464;27;20289;-78
2022/03/23 10:25:27;;;;;;;;;;;;;;;13.44;100.00;103099.50;5135411;27;19919;-76
2022/03/23 10:27:55;;;;;;;;;;;;;;;13.50;100.00;103091.00;5135263;27;20271;-77
2022/03/23 10:30:31;;;;;;;;;;;;;;;13.46;100.00;103095.22;5100092;27;19947;-77
2022/03/23 10:32:57;;;;;;;;;;;;;;;13.58;100.00;103095.00;5114642;28;19920;-77
2022/03/23 10:35:22;;;;;;;;;;;;;;;13.69;100.00;103093.94;5079569;28;19923;-78
2022/03/23 10:37:48;;;;;;;;;;;;;;;13.77;100.00;103097.94;5112839;28;20037;-76
2022/03/23 10:40:17;;;;;;;;;;;;;;;13.73;100.00;103087.97;5095569;28;20237;-77
2022/03/23 10:42:44;;;;;;;;;;;;;;;13.89;100.00;103087.16;5095666;28;20386;-77
2022/03/23 10:45:09;;;;;;;;;;;;;;;13.91;100.00;103093.44;5094677;28;19920;-77
2022/03/23 10:47:37;;;;;;;;;;;;;;;14.04;100.00;103086.22;5096363;28;20379;-77
2022/03/23 10:50:07;;;;;;;;;;;;;;;13.95;100.00;103087.53;5103863;27;19931;-78
2022/03/23 10:52:32;;;;;;;;;;;;;;;14.13;100.00;103089.38;5116857;27;19927;-78
2022/03/23 10:55:03;;;;;;;;;;;;;;;14.53;100.00;103081.03;5118246;27;20372;-78
2022/03/23 10:57:43;;;;;;;;;;;;;;;14.65;100.00;103086.13;5096051;28;19954;-78
2022/03/23 11:00:10;;;;;;;;;;;;;;;14.41;100.00;103085.66;5095921;28;19920;-77
2022/03/23 11:02:46;;;;;;;;;;;;;;;14.29;100.00;103084.16;5096310;28;19916;-78
2022/03/23 11:05:13;;;;;;;;;;;;;;;14.47;100.00;103089.53;5115133;27;19916;-78
2022/03/23 11:07:40;;;;;;;;;;;;;;;14.45;100.00;103079.66;5121616;27;19932;-78
2022/03/23 11:15:48;;;;;;;;;;;;;;;14.95;100.00;103084.22;5124687;28;19961;-79
2022/03/23 11:18:15;;;;;;;;;;;;;;;14.97;100.00;103097.56;5122771;28;19970;-79
2022/03/23 11:20:48;;;;;;;;;;;;;;;15.03;100.00;103090.84;5081849;28;19920;-78
2022/03/23 11:23:18;;;;;;;;;;;;;;;15.25;100.00;103087.56;5096621;28;19919;-81
2022/03/23 11:25:44;;;;;;;;;;;;;;;15.68;100.00;103094.22;5114217;28;19923;-79
2022/03/23 11:28:11;;;;;;;;;;;;;;;15.68;100.00;103088.00;5095941;28;19919;-80
2022/03/23 11:30:37;;;;;;;;;;;;;;;15.82;100.00;103086.03;5089299;27;19923;-78
2022/03/23 11:33:05;;;;;;;;;;;;;;;15.49;100.00;103088.78;5115747;27;19934;-79
2022/03/23 11:35:31;;;;;;;;;;;;;;;15.79;100.00;103087.72;5115195;27;19946;-80
2022/03/23 11:37:56;;;;;;;;;;;;;;;15.92;100.00;103089.22;5099028;27;20021;-80
2022/03/23 11:40:23;;;;;;;;;;;;;;;15.81;100.00;103092.22;5115292;27;19970;-79
2022/03/23 11:42:50;;;;;;;;;;;;;;;15.52;100.00;103097.84;5116658;27;19984;-77
2022/03/23 11:45:15;;;;;;;;;;;;;;;15.56;100.00;103089.16;5115073;27;20371;-78
2022/03/23 11:48:04;;;;;;;;;;;;;;;15.89;100.00;103077.53;5116482;27;19919;-77
2022/03/23 11:50:34;;;;;;;;;;;;;;;15.88;100.00;103078.38;5133724;27;19920;-77
2022/03/23 11:53:03;;;;;;;;;;;;;;;15.91;100.00;103079.47;5133645;27;20367;-77
2022/03/23 11:55:37;;;;;;;;;;;;;;;15.76;100.00;103070.69;5116101;28;19915;-77
2022/03/23 11:58:06;;;;;;;;;;;;;;;15.76;100.00;103068.94;5115233;27;19920;-78
2022/03/23 12:00:38;;;;;;;;;;;;;;;15.65;100.00;103071.91;5134515;27;19919;-79
2022/03/23 12:03:05;;;;;;;;;;;;;;;15.78;100.00;103071.69;5098731;27;19932;-78
2022/03/23 12:05:32;;;;;;;;;;;;;;;16.26;100.00;103068.72;5116366;28;19960;-77
2022/03/23 12:07:57;;;;;;;;;;;;;;;16.13;100.00;103056.59;5116032;28;20006;-78
2022/03/23 12:10:24;;;;;;;;;;;;;;;15.92;100.00;103073.28;5133705;28;19947;-78
2022/03/23 12:12:50;;;;;;;;;;;;;;;16.05;100.00;103061.53;5133154;28;19922;-78
2022/03/23 12:15:22;;;;;;;;;;;;;;;16.45;100.00;103063.44;5115036;28;19949;-77
2022/03/23 12:17:54;;;;;;;;;;;;;;;16.40;100.00;103061.41;5113960;28;19923;-78
2022/03/23 12:20:26;;;;;;;;;;;;;;;16.66;100.00;103059.97;5133890;28;19923;-78
2022/03/23 12:26:00;;;;;;;;;;;;;;;16.49;100.00;103049.44;5134396;28;20065;-78
2022/03/23 12:28:43;;;;;;;;;;;;;;;16.59;100.00;103048.09;5115982;28;20401;-78
2022/03/23 12:31:10;;;;;;;;;;;;;;;16.63;100.00;103046.53;5132645;28;19919;-78
2022/03/23 12:33:56;;;;;;;;;;;;;;;16.63;100.00;103049.19;5113611;28;19927;-77
2022/03/23 12:36:26;;;;;;;;;;;;;;;16.47;100.00;103051.13;5094671;28;19918;-77
2022/03/23 12:38:59;;;;;;;;;;;;;;;16.76;100.00;103045.31;5102295;28;19920;-78
2022/03/23 12:41:39;;;;;;;;;;;;;;;16.33;100.00;103038.94;5134011;28;20276;-78
2022/03/23 12:44:12;;;;;;;;;;;;;;;16.52;100.00;103036.28;5114845;28;20390;-77
2022/03/23 12:46:42;;;;;;;;;;;;;;;16.68;100.00;103026.34;5134048;28;19913;-77
2022/03/23 13:00:25;;;;;;;;;;;;;;;16.86;100.00;103023.66;5136099;27;20359;-77
2022/03/23 13:03:06;;;;;;;;;;;;;;;16.79;100.00;103029.50;5117715;27;19915;-75
2022/03/23 13:05:34;;;;;;;;;;;;;;;16.61;100.00;103014.53;5135241;27;20272;-76
2022/03/23 13:07:59;;;;;;;;;;;;;;;16.68;100.00;103027.25;5117054;27;19927;-78
2022/03/23 13:10:25;;;;;;;;;;;;;;;16.78;100.00;103015.28;5116351;27;19926;-76